Time;durP1;ratioP1;P1;durP2;ratioP2;P2;SDS_P1;SDS_P2;PMS_P1;PMS_P2;Temp;Humidity;BMP_temperature;BMP_pressure;BME280_temperature;BME280_humidity;BME280_pressure;Samples;Min_cycle;Max_cycle;Signal;HPM_P1;HPM_P2
2021/08/20 00:00:38;;;;;;;;;7.00;5.33;;;;;;;;2568390;30;150854;-73
2021/08/20 00:03:06;;;;;;;;;6.00;6.00;;;;;;;;2565179;38;150157;-73
2021/08/20 00:05:35;;;;;;;;;4.00;4.00;;;;;;;;2564720;38;151368;-73
2021/08/20 00:08:03;;;;;;;;;7.00;4.33;;;;;;;;2568095;30;151194;-73
2021/08/20 00:10:31;;;;;;;;;6.00;4.33;;;;;;;;2562747;38;150849;-73
2021/08/20 00:13:00;;;;;;;;;5.33;5.33;;;;;;;;2564866;38;151188;-72
2021/08/20 00:15:31;;;;;;;;;4.00;3.33;;;;;;;;2564676;30;149660;-73
2021/08/20 00:17:59;;;;;;;;;5.33;4.33;;;;;;;;2567318;30;151446;-72
2021/08/20 00:20:27;;;;;;;;;5.33;5.00;;;;;;;;2567552;30;151275;-74
2021/08/20 00:22:56;;;;;;;;;4.67;4.00;;;;;;;;2565619;38;149372;-74
2021/08/20 00:25:24;;;;;;;;;2.33;2.33;;;;;;;;2565949;30;152660;-74
2021/08/20 00:27:53;;;;;;;;;6.00;5.00;;;;;;;;2566650;30;152215;-74
2021/08/20 00:30:21;;;;;;;;;6.33;5.00;;;;;;;;2568926;30;150111;-73
2021/08/20 00:32:52;;;;;;;;;6.00;5.00;;;;;;;;2565344;38;151116;-73
2021/08/20 00:35:20;;;;;;;;;5.00;5.00;;;;;;;;2565079;38;149548;-73
2021/08/20 00:37:48;;;;;;;;;4.00;4.00;;;;;;;;2564617;38;150645;-73
2021/08/20 00:40:17;;;;;;;;;5.33;4.33;;;;;;;;2566901;30;151137;-74
2021/08/20 00:42:45;;;;;;;;;4.33;4.33;;;;;;;;2564940;38;149330;-74
2021/08/20 00:45:14;;;;;;;;;6.67;5.00;;;;;;;;2565439;38;150685;-73
2021/08/20 00:47:42;;;;;;;;;4.00;3.33;;;;;;;;2568042;30;152148;-73
2021/08/20 00:50:13;;;;;;;;;3.67;3.67;;;;;;;;2567662;30;149639;-73
2021/08/20 00:52:41;;;;;;;;;3.33;3.00;;;;;;;;2568090;30;150705;-73
2021/08/20 00:55:13;;;;;;;;;3.75;3.75;;;;;;;;2565543;38;149255;-73
2021/08/20 00:57:42;;;;;;;;;5.00;5.00;;;;;;;;2565338;30;150476;-73
2021/08/20 01:00:11;;;;;;;;;6.00;5.00;;;;;;;;2563679;38;151912;-73
2021/08/20 01:02:39;;;;;;;;;5.00;5.00;;;;;;;;2567600;30;149648;-74
2021/08/20 01:05:09;;;;;;;;;8.00;4.00;;;;;;;;2568815;30;150512;-73
2021/08/20 01:07:42;;;;;;;;;6.67;6.00;;;;;;;;2565837;38;151932;-74
2021/08/20 01:10:13;;;;;;;;;6.00;6.00;;;;;;;;2568180;30;149322;-73
2021/08/20 01:12:41;;;;;;;;;5.50;5.50;;;;;;;;2567588;30;150427;-73
2021/08/20 01:15:10;;;;;;;;;8.00;6.50;;;;;;;;2569677;30;151830;-73
2021/08/20 01:17:38;;;;;;;;;5.33;4.00;;;;;;;;2569837;30;150935;-73
2021/08/20 01:20:07;;;;;;;;;6.00;6.00;;;;;;;;2564089;30;151826;-73
2021/08/20 01:22:36;;;;;;;;;6.25;5.00;;;;;;;;2567414;30;150844;-74
2021/08/20 01:25:07;;;;;;;;;9.33;6.00;;;;;;;;2567093;30;151270;-73
2021/08/20 01:27:36;;;;;;;;;6.00;5.00;;;;;;;;2565549;38;151021;-73
2021/08/20 01:30:05;;;;;;;;;6.00;5.75;;;;;;;;2565316;38;149610;-71
2021/08/20 01:32:33;;;;;;;;;6.25;5.00;;;;;;;;2565742;38;151203;-74
2021/08/20 01:35:02;;;;;;;;;7.25;6.00;;;;;;;;2568890;30;151972;-73
2021/08/20 01:37:30;;;;;;;;;7.67;5.00;;;;;;;;2562829;38;152034;-72
2021/08/20 01:39:58;;;;;;;;;6.67;5.67;;;;;;;;2565103;38;149980;-73
2021/08/20 01:42:29;;;;;;;;;6.00;6.00;;;;;;;;2564441;38;149956;-74
2021/08/20 01:44:57;;;;;;;;;8.00;6.00;;;;;;;;2564294;38;151700;-74
2021/08/20 01:47:26;;;;;;;;;5.33;5.33;;;;;;;;2567077;30;151272;-74
2021/08/20 01:49:54;;;;;;;;;6.00;6.00;;;;;;;;2566084;30;149803;-73
2021/08/20 01:52:22;;;;;;;;;7.25;7.00;;;;;;;;2564214;38;151323;-73
2021/08/20 01:54:51;;;;;;;;;7.75;5.75;;;;;;;;2565601;30;151865;-73
2021/08/20 01:57:22;;;;;;;;;7.00;7.00;;;;;;;;2567318;30;149661;-73
2021/08/20 01:59:53;;;;;;;;;5.50;4.50;;;;;;;;2568548;30;150353;-73
2021/08/20 02:02:21;;;;;;;;;7.75;7.00;;;;;;;;2564758;38;149331;-73
2021/08/20 02:04:49;;;;;;;;;7.25;6.50;;;;;;;;2565256;30;151294;-73
2021/08/20 02:07:17;;;;;;;;;6.75;6.00;;;;;;;;2565734;38;151556;-73
2021/08/20 02:09:47;;;;;;;;;6.00;6.00;;;;;;;;2566911;30;149615;-74
2021/08/20 02:12:15;;;;;;;;;6.75;6.25;;;;;;;;2568526;30;150929;-73
2021/08/20 02:14:44;;;;;;;;;5.50;5.50;;;;;;;;2567832;30;151971;-74
2021/08/20 02:17:15;;;;;;;;;7.75;6.00;;;;;;;;2564061;38;150068;-73
2021/08/20 02:19:43;;;;;;;;;7.00;6.00;;;;;;;;2568304;30;150523;-73
2021/08/20 02:22:11;;;;;;;;;6.00;6.00;;;;;;;;2566922;30;149303;-73
2021/08/20 02:24:42;;;;;;;;;7.00;7.00;;;;;;;;2566818;30;151603;-73
2021/08/20 02:27:10;;;;;;;;;8.50;6.25;;;;;;;;2563388;38;152062;-74
2021/08/20 02:29:39;;;;;;;;;6.00;6.00;;;;;;;;2567150;30;150722;-74
2021/08/20 02:32:15;;;;;;;;;6.00;5.25;;;;;;;;2563752;30;151472;-74
2021/08/20 02:34:46;;;;;;;;;7.00;6.50;;;;;;;;2565531;30;150648;-73
2021/08/20 02:37:14;;;;;;;;;8.00;6.75;;;;;;;;2566023;30;149624;-74
2021/08/20 02:39:44;;;;;;;;;6.75;6.25;;;;;;;;2569351;30;151445;-74
2021/08/20 02:42:12;;;;;;;;;5.00;5.00;;;;;;;;2567135;30;151909;-73
2021/08/20 02:44:41;;;;;;;;;5.50;4.00;;;;;;;;2564142;30;151344;-73
2021/08/20 02:47:09;;;;;;;;;6.00;5.25;;;;;;;;2564352;30;151904;-73
2021/08/20 02:49:37;;;;;;;;;7.25;6.50;;;;;;;;2567554;30;149374;-73
2021/08/20 02:52:08;;;;;;;;;7.25;6.00;;;;;;;;2564327;30;151314;-73
2021/08/20 02:54:37;;;;;;;;;6.25;5.25;;;;;;;;2564370;38;151556;-73
2021/08/20 02:57:05;;;;;;;;;9.50;6.50;;;;;;;;2566970;30;149332;-73
2021/08/20 02:59:34;;;;;;;;;3.25;3.00;;;;;;;;2562910;38;150295;-74
2021/08/20 03:02:02;;;;;;;;;6.00;5.00;;;;;;;;2564066;38;152248;-74
2021/08/20 03:04:30;;;;;;;;;8.00;5.00;;;;;;;;2567916;38;149579;-74
2021/08/20 03:06:59;;;;;;;;;7.50;6.75;;;;;;;;2566059;30;151060;-73
2021/08/20 03:09:30;;;;;;;;;7.75;6.00;;;;;;;;2568001;30;149981;-74
2021/08/20 03:11:58;;;;;;;;;4.25;4.25;;;;;;;;2566144;38;150663;-75
2021/08/20 03:14:26;;;;;;;;;6.75;5.75;;;;;;;;2566228;30;151942;-74
2021/08/20 03:16:55;;;;;;;;;6.75;5.75;;;;;;;;2564617;30;149443;-75
2021/08/20 03:19:23;;;;;;;;;5.25;5.25;;;;;;;;2564922;30;150664;-74
2021/08/20 03:21:51;;;;;;;;;3.50;3.50;;;;;;;;2567125;30;151349;-75
2021/08/20 03:24:19;;;;;;;;;6.00;6.00;;;;;;;;2565694;30;149117;-74
2021/08/20 03:26:50;;;;;;;;;5.25;5.25;;;;;;;;2570903;30;151493;-74
2021/08/20 03:29:19;;;;;;;;;5.50;5.50;;;;;;;;2568633;30;151280;-74
2021/08/20 03:31:47;;;;;;;;;5.75;5.75;;;;;;;;2563724;38;151465;-73
2021/08/20 03:34:15;;;;;;;;;5.00;4.75;;;;;;;;2565957;38;152054;-75
2021/08/20 03:36:44;;;;;;;;;8.75;5.00;;;;;;;;2567361;30;149566;-75
2021/08/20 03:39:12;;;;;;;;;5.00;4.00;;;;;;;;2569135;30;150333;-75
2021/08/20 03:41:40;;;;;;;;;5.00;4.75;;;;;;;;2568604;30;151334;-74
2021/08/20 03:44:11;;;;;;;;;6.25;5.25;;;;;;;;2565024;38;151412;-74
2021/08/20 03:46:39;;;;;;;;;5.75;5.50;;;;;;;;2570234;30;150521;-72
2021/08/20 03:49:08;;;;;;;;;6.50;4.00;;;;;;;;2565908;38;151508;-72
2021/08/20 03:51:36;;;;;;;;;3.00;2.50;;;;;;;;2565414;30;150700;-72
2021/08/20 03:54:04;;;;;;;;;5.25;5.25;;;;;;;;2564772;30;151215;-71
2021/08/20 03:56:33;;;;;;;;;6.50;5.50;;;;;;;;2566924;38;149357;-71
2021/08/20 03:59:01;;;;;;;;;6.50;6.00;;;;;;;;2564636;30;151408;-71
2021/08/20 04:01:32;;;;;;;;;6.25;5.00;;;;;;;;2566270;30;151405;-70
2021/08/20 04:04:00;;;;;;;;;5.25;5.25;;;;;;;;2566652;30;149603;-71
2021/08/20 04:06:29;;;;;;;;;5.00;4.25;;;;;;;;2569179;30;150789;-72
2021/08/20 04:08:57;;;;;;;;;7.00;4.00;;;;;;;;2569042;30;151048;-67
2021/08/20 04:11:25;;;;;;;;;4.00;4.00;;;;;;;;2569371;30;151905;-69
2021/08/20 04:13:54;;;;;;;;;4.00;4.00;;;;;;;;2567792;30;151221;-70
2021/08/20 04:16:22;;;;;;;;;3.50;3.50;;;;;;;;2565671;30;149162;-77
2021/08/20 04:18:53;;;;;;;;;3.00;3.00;;;;;;;;2563748;38;150835;-75
2021/08/20 04:21:22;;;;;;;;;3.00;3.00;;;;;;;;2564943;38;151738;-76
2021/08/20 04:23:50;;;;;;;;;2.00;2.00;;;;;;;;2564152;30;149933;-79
2021/08/20 04:26:18;;;;;;;;;3.00;3.00;;;;;;;;2566627;38;151195;-83
2021/08/20 04:28:49;;;;;;;;;3.00;3.00;;;;;;;;2567577;30;152233;-85
2021/08/20 04:31:17;;;;;;;;;2.50;2.50;;;;;;;;2569381;38;149718;-85
2021/08/20 04:33:46;;;;;;;;;2.00;2.00;;;;;;;;2566889;30;151661;-88
2021/08/20 04:36:17;;;;;;;;;3.00;3.00;;;;;;;;2564994;38;149392;-90
2021/08/20 04:38:45;;;;;;;;;4.00;3.00;;;;;;;;2565944;38;151977;-85
2021/08/20 04:41:13;;;;;;;;;3.75;3.00;;;;;;;;2566194;38;151692;-84
2021/08/20 04:43:42;;;;;;;;;3.00;3.00;;;;;;;;2569435;30;149723;-85
2021/08/20 04:46:10;;;;;;;;;2.50;2.50;;;;;;;;2567605;38;150662;-78
2021/08/20 04:48:38;;;;;;;;;3.00;3.00;;;;;;;;2563919;30;151220;-81
2021/08/20 04:51:07;;;;;;;;;3.50;2.75;;;;;;;;2566796;30;150977;-72
2021/08/20 04:53:39;;;;;;;;;2.25;1.75;;;;;;;;2567967;38;150650;-72
2021/08/20 04:56:07;;;;;;;;;4.00;4.00;;;;;;;;2566201;30;149920;-72
2021/08/20 04:58:36;;;;;;;;;3.75;2.50;;;;;;;;2566782;30;150558;-72
2021/08/20 05:01:05;;;;;;;;;3.00;3.00;;;;;;;;2563540;30;152018;-72
2021/08/20 05:03:33;;;;;;;;;3.00;3.00;;;;;;;;2568936;30;149907;-72
2021/08/20 05:06:02;;;;;;;;;2.00;2.00;;;;;;;;2564875;38;150480;-71
2021/08/20 05:08:30;;;;;;;;;4.50;3.00;;;;;;;;2567942;30;151950;-71
2021/08/20 05:11:01;;;;;;;;;4.25;3.00;;;;;;;;2567839;30;149500;-71
2021/08/20 05:13:29;;;;;;;;;2.75;2.75;;;;;;;;2564413;38;150871;-71
2021/08/20 05:15:58;;;;;;;;;4.50;3.25;;;;;;;;2566259;30;152276;-70
2021/08/20 05:18:26;;;;;;;;;3.25;2.75;;;;;;;;2565128;38;151407;-70
2021/08/20 05:20:56;;;;;;;;;4.75;3.50;;;;;;;;2563801;38;150955;-71
2021/08/20 05:23:24;;;;;;;;;2.00;2.00;;;;;;;;2568425;30;151146;-71
2021/08/20 05:25:52;;;;;;;;;4.50;2.50;;;;;;;;2569053;30;151703;-71
2021/08/20 05:28:23;;;;;;;;;4.25;3.00;;;;;;;;2566919;30;151750;-71
2021/08/20 05:30:52;;;;;;;;;6.00;3.00;;;;;;;;2565281;38;149297;-71
2021/08/20 05:33:20;;;;;;;;;4.00;4.00;;;;;;;;2564754;30;151544;-71
2021/08/20 05:35:49;;;;;;;;;3.00;3.00;;;;;;;;2564084;38;151904;-71
2021/08/20 05:38:17;;;;;;;;;2.25;2.25;;;;;;;;2568709;30;149643;-71
2021/08/20 05:40:48;;;;;;;;;2.25;2.25;;;;;;;;2566933;30;152074;-71
2021/08/20 05:43:16;;;;;;;;;1.00;1.00;;;;;;;;2566772;30;149736;-71
2021/08/20 05:45:47;;;;;;;;;4.25;2.00;;;;;;;;2563816;38;151376;-72
2021/08/20 05:48:16;;;;;;;;;3.50;2.75;;;;;;;;2565580;30;151182;-73
2021/08/20 05:50:44;;;;;;;;;1.75;1.00;;;;;;;;2565703;30;149233;-72
2021/08/20 05:53:12;;;;;;;;;3.25;3.25;;;;;;;;2567743;30;150705;-71
2021/08/20 05:55:41;;;;;;;;;1.75;1.75;;;;;;;;2562723;38;152158;-71
2021/08/20 05:58:09;;;;;;;;;3.25;3.00;;;;;;;;2567758;30;149968;-73
2021/08/20 06:00:37;;;;;;;;;2.50;2.25;;;;;;;;2563430;38;152495;-72
2021/08/20 06:03:08;;;;;;;;;2.00;2.00;;;;;;;;2565320;30;149678;-70
2021/08/20 06:05:37;;;;;;;;;2.75;2.75;;;;;;;;2566707;30;150478;-70
2021/08/20 06:08:05;;;;;;;;;3.50;2.00;;;;;;;;2563504;30;151830;-70
2021/08/20 06:10:34;;;;;;;;;3.00;3.00;;;;;;;;2563048;30;150880;-70
2021/08/20 06:13:03;;;;;;;;;1.50;1.50;;;;;;;;2566052;38;150723;-70
2021/08/20 06:15:31;;;;;;;;;1.25;1.25;;;;;;;;2567534;30;151799;-70
2021/08/20 06:17:59;;;;;;;;;3.00;3.00;;;;;;;;2566606;30;149493;-70
2021/08/20 06:20:30;;;;;;;;;3.00;3.00;;;;;;;;2566397;30;152068;-70
2021/08/20 06:22:58;;;;;;;;;2.25;2.25;;;;;;;;2564405;30;149905;-72
2021/08/20 06:25:27;;;;;;;;;4.25;3.00;;;;;;;;2565902;38;151450;-70
2021/08/20 06:27:55;;;;;;;;;6.75;4.00;;;;;;;;2562555;38;151980;-71
2021/08/20 06:30:23;;;;;;;;;6.00;3.00;;;;;;;;2566430;30;149725;-70
2021/08/20 06:32:52;;;;;;;;;3.00;2.00;;;;;;;;2568707;30;151015;-69
2021/08/20 06:35:20;;;;;;;;;4.00;3.00;;;;;;;;2564246;38;151264;-71
2021/08/20 06:37:51;;;;;;;;;4.50;3.00;;;;;;;;2563375;30;150873;-74
2021/08/20 06:40:19;;;;;;;;;3.75;3.75;;;;;;;;2564809;30;152011;-71
2021/08/20 06:42:47;;;;;;;;;3.00;3.00;;;;;;;;2568903;30;150965;-71
2021/08/20 06:45:16;;;;;;;;;2.75;2.75;;;;;;;;2565291;30;150753;-70
2021/08/20 06:47:44;;;;;;;;;5.50;4.25;;;;;;;;2565743;30;151409;-71
2021/08/20 06:50:12;;;;;;;;;2.00;2.00;;;;;;;;2565827;30;150054;-71
2021/08/20 06:52:41;;;;;;;;;3.00;3.00;;;;;;;;2563338;38;151680;-72
2021/08/20 06:55:12;;;;;;;;;4.50;3.00;;;;;;;;2562978;38;151008;-72
2021/08/20 06:57:40;;;;;;;;;2.25;2.25;;;;;;;;2564554;30;149756;-72
2021/08/20 07:00:09;;;;;;;;;2.50;2.00;;;;;;;;2565704;30;150680;-72
2021/08/20 07:02:43;;;;;;;;;3.00;3.00;;;;;;;;2565293;30;151748;-73
2021/08/20 07:05:12;;;;;;;;;3.75;3.75;;;;;;;;2566660;30;149899;-72
2021/08/20 07:07:40;;;;;;;;;2.00;2.00;;;;;;;;2563019;30;151746;-72
2021/08/20 07:10:13;;;;;;;;;3.75;3.75;;;;;;;;2566281;30;150259;-73
2021/08/20 07:12:42;;;;;;;;;4.00;4.00;;;;;;;;2562395;38;151634;-72
2021/08/20 07:15:11;;;;;;;;;5.75;4.00;;;;;;;;2567200;30;151408;-71
2021/08/20 07:17:40;;;;;;;;;5.00;3.00;;;;;;;;2565953;38;150946;-72
2021/08/20 07:20:10;;;;;;;;;3.25;3.25;;;;;;;;2568618;30;150371;-70
2021/08/20 07:22:38;;;;;;;;;4.00;3.00;;;;;;;;2566241;30;151359;-71
2021/08/20 07:25:07;;;;;;;;;6.00;4.75;;;;;;;;2567699;30;149573;-71
2021/08/20 07:27:38;;;;;;;;;5.00;4.50;;;;;;;;2568072;30;151019;-69
2021/08/20 07:30:07;;;;;;;;;5.50;3.75;;;;;;;;2566683;30;149482;-69
2021/08/20 07:32:35;;;;;;;;;3.50;3.50;;;;;;;;2567297;30;151360;-69
2021/08/20 07:35:04;;;;;;;;;5.00;5.00;;;;;;;;2563996;30;150724;-69
2021/08/20 07:37:32;;;;;;;;;5.00;5.00;;;;;;;;2567742;30;150086;-69
2021/08/20 07:40:01;;;;;;;;;6.00;4.00;;;;;;;;2563761;30;151204;-68
2021/08/20 07:42:29;;;;;;;;;4.50;4.50;;;;;;;;2564664;38;151291;-68
2021/08/20 07:45:00;;;;;;;;;6.00;5.00;;;;;;;;2567075;30;149291;-69
2021/08/20 07:47:29;;;;;;;;;6.75;5.50;;;;;;;;2563928;38;151276;-70
2021/08/20 07:49:57;;;;;;;;;4.00;4.00;;;;;;;;2565316;30;149839;-69
2021/08/20 07:52:25;;;;;;;;;4.00;4.00;;;;;;;;2566465;38;150824;-69
2021/08/20 07:54:54;;;;;;;;;1.67;1.00;;;;;;;;2565107;30;151206;-70
2021/08/20 07:57:22;;;;;;;;;4.00;3.67;;;;;;;;2563665;38;149616;-68
2021/08/20 07:59:50;;;;;;;;;5.00;4.67;;;;;;;;2563765;38;150689;-69
2021/08/20 08:02:21;;;;;;;;;5.00;5.00;;;;;;;;2567162;30;150857;-68
2021/08/20 08:04:49;;;;;;;;;4.50;3.00;;;;;;;;2564510;38;149461;-68
2021/08/20 08:07:18;;;;;;;;;5.00;4.00;;;;;;;;2565368;30;151097;-68
2021/08/20 08:09:46;;;;;;;;;9.00;6.00;;;;;;;;2568659;30;151908;-68
2021/08/20 08:12:14;;;;;;;;;7.67;7.33;;;;;;;;2567717;30;150544;-68
2021/08/20 08:14:42;;;;;;;;;6.00;4.00;;;;;;;;2563804;30;151020;-68
2021/08/20 08:17:11;;;;;;;;;6.33;6.00;;;;;;;;2566404;30;149462;-68
2021/08/20 08:19:42;;;;;;;;;7.00;6.33;;;;;;;;2668394;35;151485;-69
2021/08/20 08:22:10;;;;;;;;;8.33;8.00;;;;;;;;2565598;30;151224;-69
2021/08/20 08:24:38;;;;;;;;;5.00;5.00;;;;;;;;2563598;30;149921;-70
2021/08/20 08:27:07;;;;;;;;;5.67;4.00;;;;;;;;2564507;30;150586;-70
2021/08/20 08:29:35;;;;;;;;;4.00;4.00;;;;;;;;2562028;30;152187;-69
2021/08/20 08:32:03;;;;;;;;;6.00;5.00;;;;;;;;2564054;38;150568;-70
2021/08/20 08:34:32;;;;;;;;;4.00;4.00;;;;;;;;2562206;30;152006;-73
2021/08/20 08:37:03;;;;;;;;;5.33;3.67;;;;;;;;2567444;30;149665;-69
2021/08/20 08:39:31;;;;;;;;;5.00;4.00;;;;;;;;2563813;38;150601;-69
2021/08/20 08:41:59;;;;;;;;;4.67;4.00;;;;;;;;2563328;38;152007;-68
2021/08/20 08:44:28;;;;;;;;;2.00;2.00;;;;;;;;2566839;30;149828;-68
2021/08/20 08:46:57;;;;;;;;;6.67;4.00;;;;;;;;2564223;38;151371;-68
2021/08/20 08:49:29;;;;;;;;;2.67;2.00;;;;;;;;2566279;30;152147;-81
2021/08/20 08:51:57;;;;;;;;;4.00;2.00;;;;;;;;2564597;38;150271;-81
2021/08/20 08:54:28;;;;;;;;;2.00;2.00;;;;;;;;2568757;30;150883;-77
2021/08/20 08:56:56;;;;;;;;;1.75;1.75;;;;;;;;2565865;30;150043;-80
2021/08/20 08:59:25;;;;;;;;;4.25;2.75;;;;;;;;2564553;38;151331;-69
2021/08/20 09:01:55;;;;;;;;;4.50;3.00;;;;;;;;2565874;30;151257;-70
2021/08/20 09:04:24;;;;;;;;;3.00;1.50;;;;;;;;2568085;30;149476;-70
2021/08/20 09:06:54;;;;;;;;;3.00;2.75;;;;;;;;2570039;30;150509;-69
2021/08/20 09:09:24;;;;;;;;;3.00;3.00;;;;;;;;2564802;38;151227;-69
2021/08/20 09:11:58;;;;;;;;;2.50;2.00;;;;;;;;2565671;30;149381;-69
2021/08/20 09:14:31;;;;;;;;;0.75;0.75;;;;;;;;2566551;30;151380;-69
2021/08/20 09:17:00;;;;;;;;;5.25;4.00;;;;;;;;2565119;38;151172;-70
2021/08/20 09:19:30;;;;;;;;;4.00;2.75;;;;;;;;2563563;30;150694;-69
2021/08/20 09:21:59;;;;;;;;;3.00;3.00;;;;;;;;2563843;38;151222;-69
2021/08/20 09:24:31;;;;;;;;;8.75;4.75;;;;;;;;2564532;38;149800;-69
2021/08/20 09:27:17;;;;;;;;;3.00;1.75;;;;;;;;2567014;30;150739;-69
2021/08/20 09:29:55;;;;;;;;;4.00;2.25;;;;;;;;2567272;30;151178;-67
2021/08/20 09:32:24;;;;;;;;;3.50;2.00;;;;;;;;2564787;30;150196;-68
2021/08/20 09:34:54;;;;;;;;;2.00;2.00;;;;;;;;2566365;30;151325;-67
2021/08/20 09:37:22;;;;;;;;;2.50;2.50;;;;;;;;2565161;30;151878;-69
2021/08/20 09:39:57;;;;;;;;;30.00;27.00;;;;;;;;2565635;31;150210;-70
2021/08/20 09:42:25;;;;;;;;;6.50;5.00;;;;;;;;2565511;30;151140;-70
2021/08/20 09:45:09;;;;;;;;;6.50;6.50;;;;;;;;2563755;38;149597;-70
2021/08/20 09:47:45;;;;;;;;;3.00;3.00;;;;;;;;2566800;30;150495;-70
2021/08/20 09:50:14;;;;;;;;;1.25;1.25;;;;;;;;2564264;30;150975;-71
2021/08/20 09:52:44;;;;;;;;;1.00;1.00;;;;;;;;2563743;38;149690;-71
2021/08/20 09:55:12;;;;;;;;;1.25;1.00;;;;;;;;2564507;30;150914;-71
2021/08/20 09:57:41;;;;;;;;;0.75;0.00;;;;;;;;2565835;30;151780;-71
2021/08/20 10:00:10;;;;;;;;;4.50;2.00;;;;;;;;2565639;38;150192;-70
2021/08/20 10:02:40;;;;;;;;;1.00;0.25;;;;;;;;2565689;30;150676;-69
2021/08/20 10:05:13;;;;;;;;;1.75;1.50;;;;;;;;2563748;38;149639;-70
2021/08/20 10:07:44;;;;;;;;;3.00;2.00;;;;;;;;2567676;30;150689;-69
2021/08/20 10:10:13;;;;;;;;;1.00;1.00;;;;;;;;2563939;30;151802;-68
2021/08/20 10:12:43;;;;;;;;;1.00;1.00;;;;;;;;2568131;30;149653;-70
2021/08/20 10:15:12;;;;;;;;;1.25;1.25;;;;;;;;2564186;38;150736;-70
2021/08/20 10:17:44;;;;;;;;;2.50;1.00;;;;;;;;2564088;38;150980;-71
2021/08/20 10:20:16;;;;;;;;;1.25;1.25;;;;;;;;2564552;38;149529;-70
2021/08/20 10:22:45;;;;;;;;;1.00;1.00;;;;;;;;2567300;30;150803;-68
2021/08/20 10:27:39;;;;;;;;;2.00;1.00;;;;;;;;2568975;30;165733;-70
2021/08/20 10:30:09;;;;;;;;;1.00;1.00;;;;;;;;2564808;30;152052;-70
2021/08/20 10:32:38;;;;;;;;;2.50;2.00;;;;;;;;2564141;30;149792;-77
2021/08/20 10:35:07;;;;;;;;;1.00;1.00;;;;;;;;2566343;30;149857;-70
2021/08/20 10:37:38;;;;;;;;;1.00;0.50;;;;;;;;2563425;31;152177;-70
2021/08/20 10:40:23;;;;;;;;;1.50;1.00;;;;;;;;2565718;30;149608;-69
2021/08/20 10:42:51;;;;;;;;;3.00;1.25;;;;;;;;2567502;30;150870;-70
2021/08/20 10:45:19;;;;;;;;;4.33;2.00;;;;;;;;2567992;30;150587;-73
2021/08/20 10:47:48;;;;;;;;;2.00;2.00;;;;;;;;2567882;30;151385;-70
2021/08/20 10:50:18;;;;;;;;;4.00;3.00;;;;;;;;2562901;30;151121;-71
2021/08/20 10:52:49;;;;;;;;;8.00;6.67;;;;;;;;2565679;30;149851;-71
2021/08/20 10:55:25;;;;;;;;;62.75;48.75;;;;;;;;2564802;30;151828;-72
2021/08/20 10:57:58;;;;;;;;;10.00;10.00;;;;;;;;2563756;38;151008;-74
2021/08/20 11:00:27;;;;;;;;;9.67;8.67;;;;;;;;2565484;30;149381;-73
2021/08/20 11:02:56;;;;;;;;;5.33;4.00;;;;;;;;2563664;30;151323;-75
2021/08/20 11:05:40;;;;;;;;;5.33;5.33;;;;;;;;2563460;38;151859;-75
2021/08/20 11:08:23;;;;;;;;;5.00;5.00;;;;;;;;2566606;38;149609;-73
2021/08/20 11:10:54;;;;;;;;;4.33;3.33;;;;;;;;2565742;30;151436;-76
2021/08/20 11:13:22;;;;;;;;;3.00;3.00;;;;;;;;2567775;30;149298;-73
2021/08/20 11:15:53;;;;;;;;;5.00;4.00;;;;;;;;2566090;30;150763;-72
2021/08/20 11:18:41;;;;;;;;;3.33;3.33;;;;;;;;2565519;30;151396;-73
2021/08/20 11:21:10;;;;;;;;;4.67;4.67;;;;;;;;2564223;38;150169;-73
2021/08/20 11:23:39;;;;;;;;;4.00;4.00;;;;;;;;2567788;30;151387;-74
2021/08/20 11:26:25;;;;;;;;;2.33;2.33;;;;;;;;2565405;30;151860;-75
2021/08/20 11:28:56;;;;;;;;;3.33;3.33;;;;;;;;2564852;30;149356;-73
2021/08/20 11:31:26;;;;;;;;;4.67;3.00;;;;;;;;2567070;30;150434;-74
2021/08/20 11:33:55;;;;;;;;;4.00;3.00;;;;;;;;2563734;38;150469;-73
2021/08/20 11:36:23;;;;;;;;;3.00;3.00;;;;;;;;2567727;30;150576;-74
2021/08/20 11:38:53;;;;;;;;;4.00;3.00;;;;;;;;2566793;30;151228;-77
2021/08/20 11:41:25;;;;;;;;;3.00;3.00;;;;;;;;2566084;30;149444;-74
2021/08/20 11:43:57;;;;;;;;;5.33;5.00;;;;;;;;2564151;38;151263;-74
2021/08/20 11:46:26;;;;;;;;;3.33;3.00;;;;;;;;2561472;38;151480;-76
2021/08/20 11:48:56;;;;;;;;;5.00;5.00;;;;;;;;2564099;38;149961;-75
2021/08/20 11:51:28;;;;;;;;;6.67;5.33;;;;;;;;2562200;30;151216;-75
2021/08/20 11:53:57;;;;;;;;;6.00;5.33;;;;;;;;2565408;38;151177;-72
2021/08/20 11:56:25;;;;;;;;;4.00;4.00;;;;;;;;2565430;38;150707;-74
2021/08/20 11:58:56;;;;;;;;;4.67;4.67;;;;;;;;2565537;30;150943;-76
2021/08/20 12:01:27;;;;;;;;;8.67;6.00;;;;;;;;2569513;30;149733;-85
2021/08/20 12:03:57;;;;;;;;;7.00;7.00;;;;;;;;2567392;30;150561;-74
2021/08/20 12:06:26;;;;;;;;;4.00;3.67;;;;;;;;2563496;38;150865;-72
2021/08/20 12:08:57;;;;;;;;;9.00;7.00;;;;;;;;2578105;30;150796;-82
2021/08/20 12:11:26;;;;;;;;;7.00;7.00;;;;;;;;2568571;38;151386;-76
2021/08/20 12:13:58;;;;;;;;;10.33;8.67;;;;;;;;2569114;30;151101;-74
2021/08/20 12:16:40;;;;;;;;;9.67;8.67;;;;;;;;2568044;30;149597;-74
2021/08/20 12:19:13;;;;;;;;;7.67;7.67;;;;;;;;2566882;30;151836;-78
2021/08/20 12:21:44;;;;;;;;;6.00;6.00;;;;;;;;2567644;30;149855;-76
2021/08/20 12:24:13;;;;;;;;;12.00;10.33;;;;;;;;2565912;30;151595;-74
2021/08/20 12:26:42;;;;;;;;;7.00;7.00;;;;;;;;2565386;30;150333;-75
2021/08/20 12:29:20;;;;;;;;;9.00;9.00;;;;;;;;2565955;30;151027;-75
2021/08/20 12:31:58;;;;;;;;;10.33;9.00;;;;;;;;2564769;38;150747;-80
2021/08/20 12:34:32;;;;;;;;;14.00;11.00;;;;;;;;2564641;38;151921;-76
2021/08/20 12:37:01;;;;;;;;;10.00;9.67;;;;;;;;2566940;38;151378;-78
2021/08/20 12:39:37;;;;;;;;;11.00;11.00;;;;;;;;2563883;38;151817;-78
2021/08/20 12:42:20;;;;;;;;;8.67;8.67;;;;;;;;2566627;30;149359;-75
2021/08/20 12:45:07;;;;;;;;;10.00;9.00;;;;;;;;2567686;30;150721;-77
2021/08/20 12:47:35;;;;;;;;;10.00;8.33;;;;;;;;2566446;30;151507;-73
2021/08/20 12:50:04;;;;;;;;;9.33;8.00;;;;;;;;2565495;38;149792;-78
2021/08/20 12:52:32;;;;;;;;;9.67;9.00;;;;;;;;2563752;38;150844;-77
2021/08/20 12:55:01;;;;;;;;;8.00;8.00;;;;;;;;2562888;38;154778;-77
2021/08/20 12:57:29;;;;;;;;;10.67;9.33;;;;;;;;2563393;30;149741;-78
2021/08/20 13:02:47;;;;;;;;;9.00;8.00;;;;;;;;2567646;30;149548;-77
2021/08/20 13:05:15;;;;;;;;;10.00;9.00;;;;;;;;2565885;38;151587;-77
2021/08/20 13:07:44;;;;;;;;;11.67;11.67;;;;;;;;2565457;38;151839;-77
2021/08/20 13:10:13;;;;;;;;;10.33;10.33;;;;;;;;2563985;30;149795;-76
2021/08/20 13:12:43;;;;;;;;;10.67;8.00;;;;;;;;2566138;30;151356;-78
2021/08/20 13:15:15;;;;;;;;;10.67;10.00;;;;;;;;2563158;30;151928;-76
2021/08/20 13:17:44;;;;;;;;;10.33;10.33;;;;;;;;2566579;30;149638;-77
2021/08/20 13:20:13;;;;;;;;;12.67;10.67;;;;;;;;2565100;38;151497;-77
2021/08/20 13:22:44;;;;;;;;;11.00;10.00;;;;;;;;2565444;30;151592;-74
2021/08/20 13:25:13;;;;;;;;;12.00;12.00;;;;;;;;2565121;30;151657;-74
2021/08/20 13:27:41;;;;;;;;;12.50;11.50;;;;;;;;2563734;38;153786;-74
2021/08/20 13:30:12;;;;;;;;;10.00;8.33;;;;;;;;2568105;30;149578;-72
2021/08/20 13:32:43;;;;;;;;;10.00;10.00;;;;;;;;2567699;30;150777;-76
2021/08/20 13:35:11;;;;;;;;;8.50;8.50;;;;;;;;2567513;30;152005;-77
2021/08/20 13:37:40;;;;;;;;;9.00;9.00;;;;;;;;2566928;30;149619;-78
2021/08/20 13:40:09;;;;;;;;;8.00;8.00;;;;;;;;2566820;30;149622;-77
2021/08/20 13:42:37;;;;;;;;;7.67;7.00;;;;;;;;2565388;30;151491;-79
2021/08/20 13:45:06;;;;;;;;;9.00;9.00;;;;;;;;2570429;30;149719;-76
2021/08/20 13:47:34;;;;;;;;;12.33;9.33;;;;;;;;2565448;30;152288;-75
2021/08/20 13:50:06;;;;;;;;;8.00;8.00;;;;;;;;2568013;30;149881;-73
2021/08/20 13:52:35;;;;;;;;;10.00;10.00;;;;;;;;2566427;30;151481;-79
2021/08/20 13:55:04;;;;;;;;;11.00;10.00;;;;;;;;2564579;38;151938;-73
2021/08/20 13:57:33;;;;;;;;;10.00;10.00;;;;;;;;2566501;30;149606;-74
2021/08/20 14:00:03;;;;;;;;;11.00;11.00;;;;;;;;2564175;38;151916;-71
2021/08/20 14:02:31;;;;;;;;;9.33;9.00;;;;;;;;2564414;30;151756;-70
2021/08/20 14:04:59;;;;;;;;;8.67;7.00;;;;;;;;2567179;30;150056;-71
2021/08/20 14:07:30;;;;;;;;;10.00;9.33;;;;;;;;2565724;30;152442;-73
2021/08/20 14:09:59;;;;;;;;;11.00;11.00;;;;;;;;2566765;30;149526;-73
2021/08/20 14:12:27;;;;;;;;;11.67;10.67;;;;;;;;2566174;38;151310;-72
2021/08/20 14:14:56;;;;;;;;;12.67;9.00;;;;;;;;2567880;30;151078;-74
2021/08/20 14:17:25;;;;;;;;;11.33;10.67;;;;;;;;2561118;38;150959;-70
2021/08/20 14:19:53;;;;;;;;;10.00;8.00;;;;;;;;2563424;30;151261;-72
2021/08/20 14:22:25;;;;;;;;;9.33;9.00;;;;;;;;2566214;30;151177;-72
2021/08/20 14:24:58;;;;;;;;;8.33;8.33;;;;;;;;2562647;30;149777;-74
2021/08/20 14:27:26;;;;;;;;;10.33;8.00;;;;;;;;2566749;30;151503;-74
2021/08/20 14:29:55;;;;;;;;;10.00;10.00;;;;;;;;2564046;38;150089;-72
2021/08/20 14:32:23;;;;;;;;;7.67;7.33;;;;;;;;2569797;30;150856;-80
2021/08/20 14:34:51;;;;;;;;;8.67;8.67;;;;;;;;2564464;30;152867;-78
2021/08/20 14:37:20;;;;;;;;;10.67;10.67;;;;;;;;2564630;30;149644;-77
2021/08/20 14:39:48;;;;;;;;;11.67;10.33;;;;;;;;2564349;38;151774;-75
2021/08/20 14:42:19;;;;;;;;;8.00;8.00;;;;;;;;2565850;30;152013;-77
2021/08/20 14:44:48;;;;;;;;;9.00;9.00;;;;;;;;2568327;30;149556;-76
2021/08/20 14:47:16;;;;;;;;;11.00;9.00;;;;;;;;2567873;30;151195;-76